Terminal Aerodrome Forecast
Issued by NWS

Current Version | Previous Version | Text Only | Print | Product List | Glossary On
Versions: 1 2 3 4 5 6 7 8 9 10 11 12 13 14 15 16 17 18 19 20 21 22 23 24 25 26 27 28 29 30 31 32 33 34
000
FTUS45 KCYS 232320
TAFAIA
TAF
KAIA 232320Z 2400/2424 01009KT P6SM FEW250
     FM240400 04007KT P6SM VCSH BKN120
     FM241000 09007KT P6SM SCT150
     FM241900 10010G16KT P6SM FEW250=

USA.gov is the U.S. government's official web portal to all federal, state and local government web resources and services.